createdAt,value
2022-10-05T00:01:00.245Z,73.17
2022-10-05T00:03:33.639Z,73.16
2022-10-05T00:06:00.673Z,73.20
2022-10-05T00:08:32.203Z,73.55
2022-10-05T00:10:59.702Z,74.06
2022-10-05T00:13:29.759Z,73.72
2022-10-05T00:16:09.612Z,73.84
2022-10-05T00:18:37.092Z,73.54
2022-10-05T00:21:19.746Z,73.87
2022-10-05T00:23:47.145Z,74.57
2022-10-05T00:26:20.183Z,75.72
2022-10-05T00:28:47.919Z,75.81
2022-10-05T00:31:36.201Z,76.79
2022-10-05T00:34:03.460Z,76.93
2022-10-05T00:36:30.449Z,76.85
2022-10-05T00:38:57.388Z,77.25
2022-10-05T00:41:42.536Z,77.27
2022-10-05T00:44:28.052Z,77.39
2022-10-05T00:47:04.553Z,77.77
2022-10-05T00:49:57.508Z,77.74
2022-10-05T00:53:02.768Z,79.16
2022-10-05T00:55:38.464Z,78.38
2022-10-05T00:58:52.576Z,79.47
2022-10-05T01:01:30.188Z,79.28
2022-10-05T01:04:13.602Z,80.25
2022-10-05T01:06:55.535Z,79.60
2022-10-05T01:09:45.688Z,78.99
2022-10-05T01:12:37.830Z,79.79
2022-10-05T01:15:21.978Z,78.70
2022-10-05T01:17:58.349Z,79.01
2022-10-05T01:20:39.665Z,78.81
2022-10-05T01:23:32.588Z,77.95
2022-10-05T01:26:17.521Z,77.38
2022-10-05T01:28:52.850Z,77.74
2022-10-05T01:31:19.825Z,77.79
2022-10-05T01:33:56.552Z,77.78
2022-10-05T01:36:37.256Z,77.52
2022-10-05T01:39:43.151Z,77.66
2022-10-05T01:42:22.068Z,78.43
2022-10-05T01:44:55.433Z,79.10
2022-10-05T01:47:33.443Z,78.51
2022-10-05T01:50:07.103Z,79.54
2022-10-05T01:52:51.150Z,78.79
2022-10-05T01:56:03.784Z,79.55
2022-10-05T01:58:50.892Z,79.61
2022-10-05T02:01:20.412Z,81.14
2022-10-05T02:03:57.620Z,81.86
2022-10-05T02:06:28.094Z,82.19
2022-10-05T02:09:26.809Z,82.41
2022-10-05T02:12:07.074Z,82.82
2022-10-05T02:14:42.063Z,83.25
2022-10-05T02:17:17.628Z,82.15
2022-10-05T02:19:56.170Z,81.58
2022-10-05T02:22:37.394Z,83.25
2022-10-05T02:25:13.578Z,83.06
2022-10-05T02:28:13.114Z,82.99
2022-10-05T02:31:07.356Z,82.65
2022-10-05T02:33:36.036Z,82.88
2022-10-05T02:36:17.988Z,82.68
2022-10-05T02:38:52.879Z,82.91
2022-10-05T02:41:42.403Z,83.37
2022-10-05T02:44:22.087Z,82.74
2022-10-05T02:47:02.329Z,81.85
2022-10-05T02:49:44.044Z,81.51
2022-10-05T02:52:22.559Z,81.45
2022-10-05T02:55:26.390Z,82.11
2022-10-05T02:58:03.808Z,81.51
2022-10-05T03:00:37.016Z,82.57
2022-10-05T03:03:16.673Z,83.98
2022-10-05T03:06:03.831Z,84.58
2022-10-05T03:08:31.683Z,82.84
2022-10-05T03:11:18.474Z,83.08
2022-10-05T03:14:13.595Z,82.31
2022-10-05T03:17:08.568Z,82.02
2022-10-05T03:19:37.062Z,82.33
2022-10-05T03:22:29.509Z,82.83
2022-10-05T03:25:36.222Z,82.24
2022-10-05T03:28:22.800Z,82.56
2022-10-05T03:31:23.649Z,81.84
2022-10-05T03:34:00.859Z,81.72
2022-10-05T03:36:49.686Z,81.72
2022-10-05T03:39:38.714Z,81.98
2022-10-05T03:42:11.660Z,81.02
2022-10-05T03:44:45.056Z,81.50
2022-10-05T03:47:43.495Z,81.08
2022-10-05T03:50:34.271Z,81.03
2022-10-05T03:53:11.056Z,81.42
2022-10-05T03:55:48.106Z,81.15
2022-10-05T03:58:29.530Z,81.73
2022-10-05T04:01:03.828Z,82.09
2022-10-05T04:03:38.235Z,82.67
2022-10-05T04:06:15.682Z,82.61
2022-10-05T04:08:50.862Z,82.76
2022-10-05T04:11:26.452Z,82.80
2022-10-05T04:14:16.015Z,82.77
2022-10-05T04:16:49.806Z,83.33
2022-10-05T04:19:24.969Z,83.47
2022-10-05T04:22:06.401Z,83.42
2022-10-05T04:24:39.874Z,82.45
2022-10-05T04:27:36.294Z,83.18
2022-10-05T04:30:05.483Z,84.78
2022-10-05T04:32:45.903Z,86.24
2022-10-05T04:35:31.879Z,85.53
2022-10-05T04:38:12.044Z,85.53
2022-10-05T04:40:51.776Z,85.64
2022-10-05T04:43:32.582Z,85.08
2022-10-05T04:46:05.350Z,85.17
2022-10-05T04:48:50.313Z,85.94
2022-10-05T04:51:26.546Z,86.81
2022-10-05T04:53:59.129Z,86.06
2022-10-05T04:56:32.449Z,86.01
2022-10-05T04:59:20.161Z,85.39
2022-10-05T05:02:17.093Z,85.74
2022-10-05T05:04:57.735Z,85.46
2022-10-05T05:07:53.911Z,85.29
2022-10-05T05:10:39.772Z,84.42
2022-10-05T05:13:29.927Z,84.38
2022-10-05T05:16:05.093Z,83.76
2022-10-05T05:18:42.671Z,84.33
2022-10-05T05:21:31.175Z,83.83
2022-10-05T05:24:03.235Z,83.71
2022-10-05T05:26:55.775Z,83.58
2022-10-05T05:29:49.682Z,82.39
2022-10-05T05:32:45.991Z,83.13
2022-10-05T05:35:36.828Z,82.49
2022-10-05T05:38:37.679Z,82.11
2022-10-05T05:41:12.339Z,82.30
2022-10-05T05:43:53.653Z,81.41
2022-10-05T05:46:58.392Z,81.14
2022-10-05T05:49:32.280Z,80.68
2022-10-05T05:52:13.671Z,80.66
2022-10-05T05:55:29.688Z,80.73
2022-10-05T05:58:04.509Z,80.27
2022-10-05T06:01:20.209Z,80.41
2022-10-05T06:04:01.653Z,79.60
2022-10-05T06:06:34.982Z,79.16
2022-10-05T06:09:15.762Z,79.07
2022-10-05T06:12:21.512Z,78.59
2022-10-05T06:14:55.297Z,77.68
2022-10-05T06:17:32.927Z,78.17
2022-10-05T06:20:05.446Z,78.38
2022-10-05T06:22:42.538Z,77.91
2022-10-05T06:25:12.463Z,77.63
2022-10-05T06:28:08.436Z,77.16
2022-10-05T06:31:09.080Z,76.49
2022-10-05T06:33:50.764Z,75.73
2022-10-05T06:36:38.961Z,74.79
2022-10-05T06:39:43.701Z,74.50
2022-10-05T06:42:23.099Z,74.62
2022-10-05T06:45:22.386Z,73.28
2022-10-05T06:48:39.296Z,73.37
2022-10-05T06:51:52.908Z,72.93
2022-10-05T06:54:35.243Z,73.01
2022-10-05T06:57:21.728Z,72.41
2022-10-05T07:00:02.692Z,71.60
2022-10-05T07:02:53.813Z,71.05
2022-10-05T07:05:45.453Z,70.90
2022-10-05T07:08:24.938Z,70.36
2022-10-05T07:11:43.017Z,68.54
2022-10-05T07:14:36.185Z,69.38
2022-10-05T07:17:27.525Z,67.01
2022-10-05T07:20:09.225Z,68.57
2022-10-05T07:23:13.873Z,67.90
2022-10-05T07:25:53.373Z,67.73
2022-10-05T07:28:47.639Z,67.21
2022-10-05T07:31:40.776Z,65.86
2022-10-05T07:34:44.141Z,65.57
2022-10-05T07:37:38.647Z,65.25
2022-10-05T07:40:18.201Z,63.93
2022-10-05T07:43:22.455Z,63.62
2022-10-05T07:46:03.684Z,63.42
2022-10-05T07:49:00.228Z,62.63
2022-10-05T07:51:36.484Z,62.30
2022-10-05T07:54:57.157Z,60.92
2022-10-05T07:57:38.429Z,62.28
2022-10-05T08:00:20.388Z,61.92
2022-10-05T08:02:53.411Z,61.01
2022-10-05T08:05:24.355Z,59.75
2022-10-05T08:08:16.683Z,59.39
2022-10-05T08:10:59.767Z,58.66
2022-10-05T08:13:52.226Z,58.20
2022-10-05T08:16:19.979Z,59.11
2022-10-05T08:19:06.830Z,57.06
2022-10-05T08:21:45.123Z,56.45
2022-10-05T08:24:21.296Z,57.11
2022-10-05T08:27:04.658Z,54.23
2022-10-05T08:29:34.620Z,55.60
2022-10-05T08:32:12.716Z,54.33
2022-10-05T08:34:52.609Z,53.96
2022-10-05T08:37:22.587Z,54.44
2022-10-05T08:40:22.644Z,55.83
2022-10-05T08:43:01.583Z,56.59
2022-10-05T08:45:31.470Z,55.17
2022-10-05T08:48:36.177Z,53.62
2022-10-05T08:51:48.736Z,53.15
2022-10-05T08:54:34.817Z,54.75
2022-10-05T08:57:22.815Z,54.61
2022-10-05T09:00:20.736Z,51.19
2022-10-05T09:03:08.868Z,53.67
2022-10-05T09:06:06.306Z,53.24
2022-10-05T09:09:12.759Z,49.91
2022-10-05T09:11:46.198Z,51.46
2022-10-05T09:14:34.179Z,49.04
2022-10-05T09:17:39.928Z,49.73
2022-10-05T09:20:25.364Z,49.60
2022-10-05T09:23:05.212Z,47.53
2022-10-05T09:25:44.100Z,47.04
2022-10-05T09:28:23.047Z,46.71
2022-10-05T09:31:12.791Z,44.99
2022-10-05T09:34:00.612Z,44.62
2022-10-05T09:36:27.557Z,46.46
2022-10-05T09:38:57.378Z,47.02
2022-10-05T09:41:30.074Z,47.23
2022-10-05T09:44:11.987Z,45.94
2022-10-05T09:46:57.625Z,45.33
2022-10-05T09:49:55.404Z,47.42
2022-10-05T09:52:48.391Z,44.28
2022-10-05T09:55:39.343Z,43.48
2022-10-05T09:58:37.031Z,42.16
2022-10-05T10:01:33.710Z,43.03
2022-10-05T10:04:08.163Z,44.01
2022-10-05T10:07:25.914Z,43.40
2022-10-05T10:10:31.092Z,44.57
2022-10-05T10:13:31.175Z,43.85
2022-10-05T10:16:00.780Z,44.28
2022-10-05T10:18:27.777Z,44.58
2022-10-05T10:21:49.070Z,43.65
2022-10-05T10:24:44.226Z,41.28
2022-10-05T10:27:20.474Z,42.96
2022-10-05T10:30:14.015Z,43.60
2022-10-05T10:32:54.451Z,44.73
2022-10-05T10:35:37.340Z,44.68
2022-10-05T10:38:23.816Z,47.55
2022-10-05T10:41:14.477Z,44.65
2022-10-05T10:43:41.728Z,44.63
2022-10-05T10:46:29.965Z,45.14
2022-10-05T10:49:33.656Z,44.67
2022-10-05T10:52:31.316Z,46.48
2022-10-05T10:55:04.511Z,46.73
2022-10-05T10:57:52.798Z,45.85
2022-10-05T11:00:38.204Z,47.36
2022-10-05T11:03:24.110Z,42.82
2022-10-05T11:06:17.254Z,44.10
2022-10-05T11:09:21.322Z,41.46
2022-10-05T11:12:12.879Z,46.38
2022-10-05T11:14:48.636Z,43.90
2022-10-05T11:17:18.348Z,45.21
2022-10-05T11:20:04.364Z,46.32
2022-10-05T11:22:54.632Z,44.49
2022-10-05T11:25:58.877Z,41.70
2022-10-05T11:29:01.141Z,40.54
2022-10-05T11:31:50.414Z,42.31
2022-10-05T11:34:27.312Z,40.15
2022-10-05T11:37:24.868Z,40.32
2022-10-05T11:40:10.178Z,38.70
2022-10-05T11:43:00.371Z,34.33
2022-10-05T11:45:46.610Z,32.08
2022-10-05T11:49:15.469Z,30.88
2022-10-05T11:51:47.692Z,32.58
2022-10-05T11:54:17.707Z,32.77
2022-10-05T11:56:54.750Z,30.32
2022-10-05T11:59:39.628Z,31.77
2022-10-05T12:02:48.278Z,31.85
2022-10-05T12:05:21.439Z,32.99
2022-10-05T12:08:30.064Z,29.87
2022-10-05T12:11:33.987Z,28.74
2022-10-05T12:14:10.638Z,32.95
2022-10-05T12:16:50.982Z,34.93
2022-10-05T12:19:22.109Z,33.50
2022-10-05T12:22:10.058Z,36.69
2022-10-05T12:24:36.977Z,37.27
2022-10-05T12:27:32.374Z,34.88
2022-10-05T12:30:05.932Z,36.96
2022-10-05T12:32:41.632Z,37.64
2022-10-05T12:35:43.964Z,30.81
2022-10-05T12:38:25.039Z,33.22
2022-10-05T12:41:11.135Z,38.50
2022-10-05T12:43:53.929Z,32.81
2022-10-05T12:46:55.557Z,30.47
2022-10-05T12:49:50.004Z,31.76
2022-10-05T12:52:37.659Z,31.88
2022-10-05T12:55:22.042Z,25.71
2022-10-05T12:58:05.815Z,29.58
2022-10-05T13:00:38.047Z,31.69
2022-10-05T13:03:44.944Z,30.47
2022-10-05T13:06:55.767Z,35.55
2022-10-05T13:09:40.345Z,36.78
2022-10-05T13:12:27.054Z,35.77
2022-10-05T13:15:08.776Z,36.90
2022-10-05T13:17:42.675Z,33.48
2022-10-05T13:20:29.898Z,32.66
2022-10-05T13:23:34.981Z,31.80
2022-10-05T13:26:07.896Z,33.24
2022-10-05T13:28:58.630Z,26.20
2022-10-05T13:31:33.126Z,31.44
2022-10-05T13:34:18.022Z,24.96
2022-10-05T13:37:23.323Z,33.76
2022-10-05T13:40:01.179Z,26.40
2022-10-05T13:42:40.326Z,29.76
2022-10-05T13:45:20.307Z,25.70
2022-10-05T13:47:58.814Z,25.39
2022-10-05T13:50:33.623Z,28.19
2022-10-05T13:53:24.800Z,23.12
2022-10-05T13:56:06.927Z,26.54
2022-10-05T13:58:45.370Z,25.56
2022-10-05T14:01:43.619Z,23.51
2022-10-05T14:04:21.232Z,27.40
2022-10-05T14:06:49.623Z,29.08
2022-10-05T14:09:30.396Z,26.03
2022-10-05T14:12:03.183Z,29.24
2022-10-05T14:14:42.310Z,29.09
2022-10-05T14:17:35.756Z,27.53
2022-10-05T14:20:26.035Z,31.62
2022-10-05T14:23:01.029Z,27.28
2022-10-05T14:25:30.215Z,27.65
2022-10-05T14:28:12.414Z,24.40
2022-10-05T14:30:40.984Z,26.99
2022-10-05T14:33:17.332Z,27.89
2022-10-05T14:35:49.180Z,29.19
2022-10-05T14:38:30.015Z,29.28
2022-10-05T14:41:17.721Z,25.41
2022-10-05T14:44:13.442Z,26.52
2022-10-05T14:47:12.048Z,25.51
2022-10-05T14:50:16.228Z,26.50
2022-10-05T14:53:17.415Z,26.20
2022-10-05T14:56:09.172Z,27.37
2022-10-05T14:58:55.974Z,30.10
2022-10-05T15:01:31.832Z,28.56
2022-10-05T15:04:21.428Z,30.94
2022-10-05T15:07:06.344Z,34.72
2022-10-05T15:09:52.073Z,28.65
2022-10-05T15:12:29.552Z,28.56
2022-10-05T15:15:05.165Z,27.05
2022-10-05T15:17:52.749Z,25.49
2022-10-05T15:20:29.471Z,26.88
2022-10-05T15:23:11.484Z,29.14
2022-10-05T15:26:06.298Z,30.65
2022-10-05T15:28:54.724Z,31.26
2022-10-05T15:31:25.932Z,36.83
2022-10-05T15:34:08.179Z,30.89
2022-10-05T15:36:52.613Z,40.17
2022-10-05T15:39:36.428Z,39.90
2022-10-05T15:42:17.424Z,38.89
2022-10-05T15:44:52.333Z,31.91
2022-10-05T15:47:54.814Z,27.31
2022-10-05T15:50:35.672Z,30.25
2022-10-05T15:53:17.835Z,30.52
2022-10-05T15:55:56.634Z,31.23
2022-10-05T15:58:31.498Z,31.89
2022-10-05T16:01:11.363Z,31.74
2022-10-05T16:03:49.369Z,31.53
2022-10-05T16:06:56.728Z,33.60
2022-10-05T16:09:34.575Z,35.51
2022-10-05T16:12:21.534Z,34.92
2022-10-05T16:15:00.694Z,35.57
2022-10-05T16:17:47.475Z,36.00
2022-10-05T16:20:20.858Z,36.74
2022-10-05T16:23:29.998Z,37.87
2022-10-05T16:26:20.596Z,37.81
2022-10-05T16:28:47.702Z,39.27
2022-10-05T16:31:31.267Z,39.79
2022-10-05T16:34:10.386Z,40.90
2022-10-05T16:37:28.462Z,41.05
2022-10-05T16:40:21.537Z,42.14
2022-10-05T16:43:28.382Z,43.75
2022-10-05T16:46:15.936Z,44.16
2022-10-05T16:48:48.903Z,45.78
2022-10-05T16:51:23.426Z,44.30
2022-10-05T16:54:02.240Z,45.11
2022-10-05T16:56:39.462Z,45.74
2022-10-05T16:59:24.676Z,45.67
2022-10-05T17:02:15.272Z,46.59
2022-10-05T17:05:01.821Z,46.51
2022-10-05T17:07:49.806Z,46.63
2022-10-05T17:10:38.010Z,47.13
2022-10-05T17:13:37.615Z,47.20
2022-10-05T17:16:29.442Z,48.07
2022-10-05T17:19:21.347Z,47.93
2022-10-05T17:22:07.933Z,48.16
2022-10-05T17:24:41.833Z,47.88
2022-10-05T17:27:26.123Z,48.05
2022-10-05T17:29:55.405Z,47.86
2022-10-05T17:32:22.353Z,48.08
2022-10-05T17:35:01.435Z,49.12
2022-10-05T17:37:28.425Z,48.52
2022-10-05T17:39:57.634Z,48.60
2022-10-05T17:42:30.247Z,48.68
2022-10-05T17:45:20.890Z,49.75
2022-10-05T17:48:04.261Z,49.83
2022-10-05T17:51:09.781Z,50.41
2022-10-05T17:54:04.164Z,49.76
2022-10-05T17:56:53.424Z,49.93
2022-10-05T17:59:46.331Z,50.61
2022-10-05T18:02:23.034Z,50.79
2022-10-05T18:05:14.623Z,51.23
2022-10-05T18:07:44.173Z,51.55
2022-10-05T18:10:16.997Z,51.21
2022-10-05T18:13:11.361Z,52.14
2022-10-05T18:15:45.326Z,52.71
2022-10-05T18:18:44.031Z,53.11
2022-10-05T18:21:13.866Z,53.02
2022-10-05T18:24:02.895Z,53.92
2022-10-05T18:26:36.956Z,53.32
2022-10-05T18:29:39.023Z,54.29
2022-10-05T18:32:23.570Z,54.81
2022-10-05T18:35:01.976Z,53.64
2022-10-05T18:37:50.664Z,54.54
2022-10-05T18:40:26.682Z,54.58
2022-10-05T18:43:06.576Z,54.98
2022-10-05T18:45:44.240Z,54.90
2022-10-05T18:48:30.051Z,55.03
2022-10-05T18:51:27.405Z,55.60
2022-10-05T18:53:54.591Z,54.98
2022-10-05T18:56:30.283Z,55.08
2022-10-05T18:59:27.712Z,56.82
2022-10-05T19:02:20.329Z,56.66
2022-10-05T19:05:29.305Z,58.61
2022-10-05T19:08:20.726Z,57.25
2022-10-05T19:10:55.662Z,57.14
2022-10-05T19:13:25.525Z,57.57
2022-10-05T19:16:06.888Z,58.81
2022-10-05T19:19:01.331Z,59.47
2022-10-05T19:21:39.594Z,59.64
2022-10-05T19:24:25.047Z,60.30
2022-10-05T19:27:17.178Z,72.72
2022-10-05T19:29:56.218Z,64.14
2022-10-05T19:32:30.544Z,61.98
2022-10-05T19:35:13.198Z,61.20
2022-10-05T19:38:00.813Z,61.89
2022-10-05T19:40:36.354Z,61.98
2022-10-05T19:43:19.133Z,61.95
2022-10-05T19:46:19.018Z,62.26
2022-10-05T19:48:53.464Z,62.74
2022-10-05T19:51:36.124Z,62.89
2022-10-05T19:54:16.466Z,63.82
2022-10-05T19:56:50.218Z,64.16
2022-10-05T19:59:24.689Z,63.89
2022-10-05T20:01:57.355Z,63.68
2022-10-05T20:04:41.018Z,63.52
2022-10-05T20:07:17.263Z,64.24
2022-10-05T20:09:59.520Z,64.04
2022-10-05T20:12:54.698Z,64.04
2022-10-05T20:15:52.121Z,64.07
2022-10-05T20:18:58.708Z,64.56
2022-10-05T20:21:45.977Z,63.95
2022-10-05T20:24:20.461Z,64.96
2022-10-05T20:27:15.156Z,63.95
2022-10-05T20:29:44.858Z,64.46
2022-10-05T20:32:18.099Z,64.81
2022-10-05T20:34:47.215Z,65.22
2022-10-05T20:37:16.684Z,65.47
2022-10-05T20:39:43.823Z,65.30
2022-10-05T20:42:11.254Z,65.56
2022-10-05T20:44:38.603Z,66.32
2022-10-05T20:47:09.648Z,67.44
2022-10-05T20:49:38.533Z,66.72
2022-10-05T20:52:06.750Z,67.36
2022-10-05T20:54:33.848Z,67.02
2022-10-05T20:57:00.833Z,66.43
2022-10-05T20:59:27.831Z,66.76
2022-10-05T21:01:54.984Z,66.41
2022-10-05T21:04:24.580Z,66.73
2022-10-05T21:06:52.961Z,66.82
2022-10-05T21:09:21.618Z,66.73
2022-10-05T21:11:50.353Z,67.10
2022-10-05T21:14:17.425Z,67.21
2022-10-05T21:16:45.985Z,66.89
2022-10-05T21:19:14.454Z,67.21
2022-10-05T21:21:43.296Z,67.07
2022-10-05T21:24:13.925Z,67.50
2022-10-05T21:26:41.839Z,68.04
2022-10-05T21:29:12.575Z,67.48
2022-10-05T21:31:40.512Z,68.59
2022-10-05T21:34:07.906Z,68.41
2022-10-05T21:36:35.247Z,68.73
2022-10-05T21:39:02.267Z,68.44
2022-10-05T21:41:29.350Z,68.75
2022-10-05T21:43:56.332Z,68.92
2022-10-05T21:46:27.607Z,70.12
2022-10-05T21:48:55.955Z,70.20
2022-10-05T21:51:26.389Z,70.15
2022-10-05T21:54:03.653Z,70.85
2022-10-05T21:56:37.097Z,69.78
2022-10-05T21:59:09.284Z,70.76
2022-10-05T22:01:37.155Z,69.78
2022-10-05T22:04:06.874Z,69.85
2022-10-05T22:06:36.645Z,69.99
2022-10-05T22:09:06.015Z,69.92
2022-10-05T22:11:34.269Z,69.53
2022-10-05T22:14:04.257Z,69.63
2022-10-05T22:16:34.941Z,69.98
2022-10-05T22:19:05.286Z,70.62
2022-10-05T22:21:34.427Z,71.17
2022-10-05T22:24:02.804Z,70.98
2022-10-05T22:26:30.124Z,71.29
2022-10-05T22:28:57.224Z,71.28
2022-10-05T22:31:24.516Z,71.70
2022-10-05T22:33:51.575Z,71.81
2022-10-05T22:36:19.570Z,71.66
2022-10-05T22:38:47.725Z,71.77
2022-10-05T22:41:18.448Z,71.60
2022-10-05T22:43:50.188Z,72.17
2022-10-05T22:46:18.096Z,72.21
2022-10-05T22:48:45.074Z,73.09
2022-10-05T22:51:12.136Z,72.62
2022-10-05T22:53:39.175Z,72.45
2022-10-05T22:56:09.048Z,72.44
2022-10-05T22:58:36.704Z,72.62
2022-10-05T23:01:05.929Z,72.53
2022-10-05T23:03:33.545Z,72.62
2022-10-05T23:06:03.679Z,72.81
2022-10-05T23:08:32.259Z,73.58
2022-10-05T23:11:10.630Z,74.02
2022-10-05T23:13:38.107Z,73.36
2022-10-05T23:18:50.631Z,73.54
2022-10-05T23:21:18.889Z,73.45
2022-10-05T23:23:49.059Z,73.20
2022-10-05T23:26:16.996Z,73.39
2022-10-05T23:28:48.058Z,73.50
2022-10-05T23:31:17.481Z,73.64
2022-10-05T23:33:44.715Z,73.65
2022-10-05T23:36:21.970Z,72.87
2022-10-05T23:38:49.428Z,73.03
2022-10-05T23:41:17.205Z,72.58
2022-10-05T23:43:44.201Z,72.97
2022-10-05T23:46:11.993Z,73.27
2022-10-05T23:48:39.287Z,72.99
2022-10-05T23:51:08.185Z,73.22
2022-10-05T23:53:35.552Z,73.59
2022-10-05T23:56:02.721Z,74.05
2022-10-05T23:58:30.036Z,74.50
